sensor_id;sensor_type;location;lat;lon;timestamp;P1;durP1;ratioP1;P2;durP2;ratioP2
19587;SDS011;9940;47.252;8.696;2023-04-05T00:01:56;6.32;;;3.88;;
19587;SDS011;9940;47.252;8.696;2023-04-05T00:04:22;6.20;;;3.75;;
19587;SDS011;9940;47.252;8.696;2023-04-05T00:06:48;6.07;;;3.38;;
19587;SDS011;9940;47.252;8.696;2023-04-05T00:09:16;6.90;;;3.90;;
19587;SDS011;9940;47.252;8.696;2023-04-05T00:11:44;5.32;;;3.67;;
19587;SDS011;9940;47.252;8.696;2023-04-05T00:14:12;5.55;;;3.50;;
19587;SDS011;9940;47.252;8.696;2023-04-05T00:16:38;8.15;;;3.78;;
19587;SDS011;9940;47.252;8.696;2023-04-05T00:19:06;5.00;;;3.33;;
19587;SDS011;9940;47.252;8.696;2023-04-05T00:21:35;6.78;;;3.90;;
19587;SDS011;9940;47.252;8.696;2023-04-05T00:24:03;3.58;;;3.17;;
19587;SDS011;9940;47.252;8.696;2023-04-05T00:26:29;9.02;;;3.75;;
19587;SDS011;9940;47.252;8.696;2023-04-05T00:28:54;6.78;;;3.30;;
19587;SDS011;9940;47.252;8.696;2023-04-05T00:31:20;7.43;;;3.53;;
19587;SDS011;9940;47.252;8.696;2023-04-05T00:33:46;5.47;;;3.88;;
19587;SDS011;9940;47.252;8.696;2023-04-05T00:36:12;5.70;;;3.80;;
19587;SDS011;9940;47.252;8.696;2023-04-05T00:38:38;8.38;;;3.85;;
19587;SDS011;9940;47.252;8.696;2023-04-05T00:41:05;6.30;;;3.53;;
19587;SDS011;9940;47.252;8.696;2023-04-05T00:43:33;8.85;;;3.40;;
19587;SDS011;9940;47.252;8.696;2023-04-05T00:46:00;8.40;;;3.58;;
19587;SDS011;9940;47.252;8.696;2023-04-05T00:48:26;7.03;;;4.13;;
19587;SDS011;9940;47.252;8.696;2023-04-05T00:50:53;5.53;;;3.50;;
19587;SDS011;9940;47.252;8.696;2023-04-05T00:53:21;6.60;;;3.72;;
19587;SDS011;9940;47.252;8.696;2023-04-05T00:55:47;4.93;;;3.40;;
19587;SDS011;9940;47.252;8.696;2023-04-05T00:58:17;4.53;;;3.72;;
19587;SDS011;9940;47.252;8.696;2023-04-05T01:01:09;5.93;;;3.73;;
19587;SDS011;9940;47.252;8.696;2023-04-05T01:03:38;5.53;;;3.70;;
19587;SDS011;9940;47.252;8.696;2023-04-05T01:08:51;8.35;;;4.00;;
19587;SDS011;9940;47.252;8.696;2023-04-05T01:11:25;7.00;;;3.85;;
19587;SDS011;9940;47.252;8.696;2023-04-05T01:14:00;5.82;;;3.50;;
19587;SDS011;9940;47.252;8.696;2023-04-05T01:16:28;8.50;;;3.90;;
19587;SDS011;9940;47.252;8.696;2023-04-05T01:18:54;6.50;;;4.13;;
19587;SDS011;9940;47.252;8.696;2023-04-05T01:32:14;5.60;;;3.27;;
19587;SDS011;9940;47.252;8.696;2023-04-05T01:34:52;7.03;;;3.83;;
19587;SDS011;9940;47.252;8.696;2023-04-05T01:37:25;7.93;;;3.88;;
19587;SDS011;9940;47.252;8.696;2023-04-05T01:39:54;8.43;;;3.92;;
19587;SDS011;9940;47.252;8.696;2023-04-05T01:42:23;6.28;;;3.85;;
19587;SDS011;9940;47.252;8.696;2023-04-05T01:44:52;6.20;;;2.50;;
19587;SDS011;9940;47.252;8.696;2023-04-05T01:47:19;8.35;;;3.95;;
19587;SDS011;9940;47.252;8.696;2023-04-05T01:49:45;6.55;;;3.85;;
19587;SDS011;9940;47.252;8.696;2023-04-05T01:52:11;7.03;;;3.90;;
19587;SDS011;9940;47.252;8.696;2023-04-05T01:54:39;6.18;;;3.55;;
19587;SDS011;9940;47.252;8.696;2023-04-05T01:57:05;7.72;;;4.20;;
19587;SDS011;9940;47.252;8.696;2023-04-05T01:59:31;6.60;;;3.75;;
19587;SDS011;9940;47.252;8.696;2023-04-05T02:01:56;5.65;;;3.58;;
19587;SDS011;9940;47.252;8.696;2023-04-05T02:04:24;7.40;;;3.78;;
19587;SDS011;9940;47.252;8.696;2023-04-05T02:06:50;6.30;;;3.50;;
19587;SDS011;9940;47.252;8.696;2023-04-05T02:09:18;6.00;;;3.80;;
19587;SDS011;9940;47.252;8.696;2023-04-05T02:11:48;6.95;;;4.07;;
19587;SDS011;9940;47.252;8.696;2023-04-05T02:14:14;10.80;;;3.90;;
19587;SDS011;9940;47.252;8.696;2023-04-05T02:16:42;7.07;;;4.05;;
19587;SDS011;9940;47.252;8.696;2023-04-05T02:19:10;7.97;;;3.92;;
19587;SDS011;9940;47.252;8.696;2023-04-05T02:21:42;5.65;;;3.88;;
19587;SDS011;9940;47.252;8.696;2023-04-05T02:24:07;6.97;;;3.80;;
19587;SDS011;9940;47.252;8.696;2023-04-05T02:26:33;6.15;;;3.65;;
19587;SDS011;9940;47.252;8.696;2023-04-05T02:28:59;6.60;;;3.83;;
19587;SDS011;9940;47.252;8.696;2023-04-05T02:31:24;7.32;;;4.20;;
19587;SDS011;9940;47.252;8.696;2023-04-05T02:33:50;5.60;;;3.30;;
19587;SDS011;9940;47.252;8.696;2023-04-05T02:36:19;5.85;;;3.88;;
19587;SDS011;9940;47.252;8.696;2023-04-05T02:38:46;6.60;;;4.25;;
19587;SDS011;9940;47.252;8.696;2023-04-05T02:41:11;9.13;;;4.13;;
19587;SDS011;9940;47.252;8.696;2023-04-05T02:43:39;6.57;;;4.15;;
19587;SDS011;9940;47.252;8.696;2023-04-05T02:46:07;6.07;;;4.15;;
19587;SDS011;9940;47.252;8.696;2023-04-05T02:48:33;6.93;;;4.10;;
19587;SDS011;9940;47.252;8.696;2023-04-05T02:50:58;10.10;;;4.53;;
19587;SDS011;9940;47.252;8.696;2023-04-05T02:53:26;7.35;;;4.22;;
19587;SDS011;9940;47.252;8.696;2023-04-05T02:55:55;8.05;;;3.90;;
19587;SDS011;9940;47.252;8.696;2023-04-05T02:58:21;6.95;;;3.95;;
19587;SDS011;9940;47.252;8.696;2023-04-05T03:00:50;5.80;;;3.78;;
19587;SDS011;9940;47.252;8.696;2023-04-05T03:03:17;7.38;;;4.00;;
19587;SDS011;9940;47.252;8.696;2023-04-05T03:05:46;6.18;;;3.33;;
19587;SDS011;9940;47.252;8.696;2023-04-05T03:08:14;6.60;;;3.85;;
19587;SDS011;9940;47.252;8.696;2023-04-05T03:10:44;5.93;;;3.72;;
19587;SDS011;9940;47.252;8.696;2023-04-05T03:13:10;10.23;;;4.15;;
19587;SDS011;9940;47.252;8.696;2023-04-05T03:15:37;7.00;;;3.80;;
19587;SDS011;9940;47.252;8.696;2023-04-05T03:18:03;8.10;;;3.97;;
19587;SDS011;9940;47.252;8.696;2023-04-05T03:20:32;4.68;;;3.50;;
19587;SDS011;9940;47.252;8.696;2023-04-05T03:23:00;8.30;;;3.55;;
19587;SDS011;9940;47.252;8.696;2023-04-05T03:25:28;12.63;;;3.80;;
19587;SDS011;9940;47.252;8.696;2023-04-05T03:27:53;8.82;;;3.70;;
19587;SDS011;9940;47.252;8.696;2023-04-05T03:30:19;7.63;;;3.88;;
19587;SDS011;9940;47.252;8.696;2023-04-05T03:32:45;8.80;;;4.10;;
19587;SDS011;9940;47.252;8.696;2023-04-05T03:35:12;7.35;;;3.83;;
19587;SDS011;9940;47.252;8.696;2023-04-05T03:37:40;8.38;;;4.20;;
19587;SDS011;9940;47.252;8.696;2023-04-05T03:40:08;6.32;;;4.03;;
19587;SDS011;9940;47.252;8.696;2023-04-05T03:42:37;5.93;;;3.80;;
19587;SDS011;9940;47.252;8.696;2023-04-05T03:45:02;7.63;;;3.97;;
19587;SDS011;9940;47.252;8.696;2023-04-05T03:47:32;9.18;;;4.20;;
19587;SDS011;9940;47.252;8.696;2023-04-05T03:49:58;8.25;;;3.78;;
19587;SDS011;9940;47.252;8.696;2023-04-05T03:52:26;6.85;;;3.95;;
19587;SDS011;9940;47.252;8.696;2023-04-05T03:54:54;5.78;;;3.47;;
19587;SDS011;9940;47.252;8.696;2023-04-05T03:57:22;6.13;;;3.97;;
19587;SDS011;9940;47.252;8.696;2023-04-05T03:59:54;8.63;;;4.00;;
19587;SDS011;9940;47.252;8.696;2023-04-05T04:02:20;7.85;;;3.92;;
19587;SDS011;9940;47.252;8.696;2023-04-05T04:04:46;7.00;;;4.00;;
19587;SDS011;9940;47.252;8.696;2023-04-05T04:07:17;5.40;;;3.53;;
19587;SDS011;9940;47.252;8.696;2023-04-05T04:09:45;7.40;;;4.00;;
19587;SDS011;9940;47.252;8.696;2023-04-05T04:12:11;6.93;;;4.20;;
19587;SDS011;9940;47.252;8.696;2023-04-05T04:14:39;5.05;;;3.85;;
19587;SDS011;9940;47.252;8.696;2023-04-05T04:17:09;7.40;;;4.15;;
19587;SDS011;9940;47.252;8.696;2023-04-05T04:19:35;5.90;;;3.95;;
19587;SDS011;9940;47.252;8.696;2023-04-05T04:22:00;6.55;;;3.90;;
19587;SDS011;9940;47.252;8.696;2023-04-05T04:24:26;7.88;;;4.55;;
19587;SDS011;9940;47.252;8.696;2023-04-05T04:26:56;6.10;;;4.03;;
19587;SDS011;9940;47.252;8.696;2023-04-05T04:29:22;7.45;;;3.92;;
19587;SDS011;9940;47.252;8.696;2023-04-05T04:34:20;5.20;;;3.60;;
19587;SDS011;9940;47.252;8.696;2023-04-05T04:36:45;9.20;;;4.28;;
19587;SDS011;9940;47.252;8.696;2023-04-05T04:39:12;7.28;;;3.55;;
19587;SDS011;9940;47.252;8.696;2023-04-05T04:41:42;6.85;;;3.75;;
19587;SDS011;9940;47.252;8.696;2023-04-05T04:44:11;8.32;;;4.00;;
19587;SDS011;9940;47.252;8.696;2023-04-05T04:46:38;7.22;;;4.18;;
19587;SDS011;9940;47.252;8.696;2023-04-05T04:49:09;5.78;;;3.42;;
19587;SDS011;9940;47.252;8.696;2023-04-05T04:51:38;7.15;;;3.75;;
19587;SDS011;9940;47.252;8.696;2023-04-05T04:54:04;6.95;;;4.13;;
19587;SDS011;9940;47.252;8.696;2023-04-05T04:56:35;7.87;;;3.93;;
19587;SDS011;9940;47.252;8.696;2023-04-05T04:59:00;7.80;;;3.92;;
19587;SDS011;9940;47.252;8.696;2023-04-05T05:01:28;6.82;;;3.45;;
19587;SDS011;9940;47.252;8.696;2023-04-05T05:03:57;7.90;;;4.20;;
19587;SDS011;9940;47.252;8.696;2023-04-05T05:06:25;7.63;;;3.95;;
19587;SDS011;9940;47.252;8.696;2023-04-05T05:08:53;8.27;;;4.18;;
19587;SDS011;9940;47.252;8.696;2023-04-05T05:11:20;7.03;;;3.97;;
19587;SDS011;9940;47.252;8.696;2023-04-05T05:13:46;6.68;;;4.07;;
19587;SDS011;9940;47.252;8.696;2023-04-05T05:16:12;8.90;;;4.10;;
19587;SDS011;9940;47.252;8.696;2023-04-05T05:18:37;7.50;;;4.20;;
19587;SDS011;9940;47.252;8.696;2023-04-05T05:21:05;10.20;;;4.10;;
19587;SDS011;9940;47.252;8.696;2023-04-05T05:23:33;7.90;;;4.25;;
19587;SDS011;9940;47.252;8.696;2023-04-05T05:25:58;9.27;;;4.45;;
19587;SDS011;9940;47.252;8.696;2023-04-05T05:28:27;25.15;;;13.15;;
19587;SDS011;9940;47.252;8.696;2023-04-05T05:30:52;14.13;;;7.20;;
19587;SDS011;9940;47.252;8.696;2023-04-05T05:33:18;11.38;;;5.20;;
19587;SDS011;9940;47.252;8.696;2023-04-05T05:35:48;9.43;;;4.22;;
19587;SDS011;9940;47.252;8.696;2023-04-05T05:38:15;9.50;;;4.55;;
19587;SDS011;9940;47.252;8.696;2023-04-05T05:40:41;9.65;;;4.53;;
19587;SDS011;9940;47.252;8.696;2023-04-05T05:43:07;8.60;;;3.95;;
19587;SDS011;9940;47.252;8.696;2023-04-05T05:45:34;7.13;;;4.13;;
19587;SDS011;9940;47.252;8.696;2023-04-05T05:48:00;10.60;;;4.25;;
19587;SDS011;9940;47.252;8.696;2023-04-05T05:50:26;8.95;;;3.85;;
19587;SDS011;9940;47.252;8.696;2023-04-05T05:52:57;8.57;;;4.20;;
19587;SDS011;9940;47.252;8.696;2023-04-05T05:55:25;7.82;;;4.35;;
19587;SDS011;9940;47.252;8.696;2023-04-05T05:57:53;6.53;;;4.15;;
19587;SDS011;9940;47.252;8.696;2023-04-05T06:00:21;15.25;;;5.15;;
19587;SDS011;9940;47.252;8.696;2023-04-05T06:02:50;6.75;;;4.38;;
19587;SDS011;9940;47.252;8.696;2023-04-05T06:05:16;8.23;;;3.95;;
19587;SDS011;9940;47.252;8.696;2023-04-05T06:07:44;7.95;;;4.57;;
19587;SDS011;9940;47.252;8.696;2023-04-05T06:10:12;9.77;;;5.15;;
19587;SDS011;9940;47.252;8.696;2023-04-05T06:12:39;7.90;;;4.45;;
19587;SDS011;9940;47.252;8.696;2023-04-05T06:15:05;11.00;;;4.65;;
19587;SDS011;9940;47.252;8.696;2023-04-05T06:17:38;9.02;;;4.07;;
19587;SDS011;9940;47.252;8.696;2023-04-05T06:20:07;7.28;;;4.60;;
19587;SDS011;9940;47.252;8.696;2023-04-05T06:22:34;6.75;;;4.07;;
19587;SDS011;9940;47.252;8.696;2023-04-05T06:25:00;11.07;;;4.50;;
19587;SDS011;9940;47.252;8.696;2023-04-05T06:27:26;8.77;;;4.60;;
19587;SDS011;9940;47.252;8.696;2023-04-05T06:29:51;6.65;;;4.55;;
19587;SDS011;9940;47.252;8.696;2023-04-05T06:32:19;8.68;;;4.18;;
19587;SDS011;9940;47.252;8.696;2023-04-05T06:34:47;7.80;;;4.35;;
19587;SDS011;9940;47.252;8.696;2023-04-05T06:37:15;7.80;;;4.40;;
19587;SDS011;9940;47.252;8.696;2023-04-05T06:39:40;8.77;;;4.55;;
19587;SDS011;9940;47.252;8.696;2023-04-05T06:42:06;10.52;;;5.05;;
19587;SDS011;9940;47.252;8.696;2023-04-05T06:44:34;9.57;;;5.75;;
19587;SDS011;9940;47.252;8.696;2023-04-05T06:47:02;12.82;;;5.72;;
19587;SDS011;9940;47.252;8.696;2023-04-05T06:49:28;7.68;;;4.70;;
19587;SDS011;9940;47.252;8.696;2023-04-05T06:51:54;10.38;;;4.90;;
19587;SDS011;9940;47.252;8.696;2023-04-05T06:54:20;9.10;;;5.07;;
19587;SDS011;9940;47.252;8.696;2023-04-05T06:56:48;6.32;;;4.53;;
19587;SDS011;9940;47.252;8.696;2023-04-05T06:59:20;7.30;;;4.82;;
19587;SDS011;9940;47.252;8.696;2023-04-05T07:01:46;9.25;;;4.95;;
19587;SDS011;9940;47.252;8.696;2023-04-05T07:04:11;7.43;;;4.47;;
19587;SDS011;9940;47.252;8.696;2023-04-05T07:06:37;8.32;;;4.88;;
19587;SDS011;9940;47.252;8.696;2023-04-05T07:09:03;7.78;;;4.85;;
19587;SDS011;9940;47.252;8.696;2023-04-05T07:11:29;11.20;;;5.07;;
19587;SDS011;9940;47.252;8.696;2023-04-05T07:13:57;9.48;;;5.15;;
19587;SDS011;9940;47.252;8.696;2023-04-05T07:16:23;8.45;;;4.88;;
19587;SDS011;9940;47.252;8.696;2023-04-05T07:18:49;12.43;;;4.78;;
19587;SDS011;9940;47.252;8.696;2023-04-05T07:21:15;7.13;;;4.97;;
19587;SDS011;9940;47.252;8.696;2023-04-05T07:23:41;7.43;;;4.75;;
19587;SDS011;9940;47.252;8.696;2023-04-05T07:26:09;9.55;;;5.05;;
19587;SDS011;9940;47.252;8.696;2023-04-05T07:28:36;8.57;;;4.70;;
19587;SDS011;9940;47.252;8.696;2023-04-05T07:31:02;8.63;;;4.88;;
19587;SDS011;9940;47.252;8.696;2023-04-05T07:33:29;8.45;;;4.97;;
19587;SDS011;9940;47.252;8.696;2023-04-05T07:35:55;8.27;;;4.80;;
19587;SDS011;9940;47.252;8.696;2023-04-05T07:38:25;10.35;;;5.53;;
19587;SDS011;9940;47.252;8.696;2023-04-05T07:40:54;9.85;;;5.30;;
19587;SDS011;9940;47.252;8.696;2023-04-05T07:43:19;7.70;;;5.00;;
19587;SDS011;9940;47.252;8.696;2023-04-05T07:45:45;7.72;;;4.93;;
19587;SDS011;9940;47.252;8.696;2023-04-05T07:48:13;7.70;;;4.93;;
19587;SDS011;9940;47.252;8.696;2023-04-05T07:50:39;9.23;;;5.40;;
19587;SDS011;9940;47.252;8.696;2023-04-05T07:53:06;13.57;;;5.30;;
19587;SDS011;9940;47.252;8.696;2023-04-05T07:55:32;11.05;;;5.95;;
19587;SDS011;9940;47.252;8.696;2023-04-05T07:58:00;14.20;;;6.30;;
19587;SDS011;9940;47.252;8.696;2023-04-05T08:00:25;9.32;;;5.28;;
19587;SDS011;9940;47.252;8.696;2023-04-05T08:02:53;7.30;;;5.18;;
19587;SDS011;9940;47.252;8.696;2023-04-05T08:05:19;11.20;;;5.50;;
19587;SDS011;9940;47.252;8.696;2023-04-05T08:07:47;8.27;;;4.75;;
19587;SDS011;9940;47.252;8.696;2023-04-05T08:10:13;8.65;;;4.90;;
19587;SDS011;9940;47.252;8.696;2023-04-05T08:12:40;9.32;;;4.97;;
19587;SDS011;9940;47.252;8.696;2023-04-05T08:15:06;8.63;;;4.82;;
19587;SDS011;9940;47.252;8.696;2023-04-05T08:17:32;11.25;;;5.07;;
19587;SDS011;9940;47.252;8.696;2023-04-05T08:20:00;8.48;;;4.90;;
19587;SDS011;9940;47.252;8.696;2023-04-05T08:22:30;11.25;;;5.45;;
19587;SDS011;9940;47.252;8.696;2023-04-05T08:24:58;10.88;;;5.20;;
19587;SDS011;9940;47.252;8.696;2023-04-05T08:27:24;9.15;;;4.65;;
19587;SDS011;9940;47.252;8.696;2023-04-05T08:29:50;8.60;;;5.03;;
19587;SDS011;9940;47.252;8.696;2023-04-05T08:32:17;10.20;;;5.10;;
19587;SDS011;9940;47.252;8.696;2023-04-05T08:34:43;8.15;;;5.10;;
19587;SDS011;9940;47.252;8.696;2023-04-05T08:37:08;11.57;;;5.55;;
19587;SDS011;9940;47.252;8.696;2023-04-05T08:39:36;10.80;;;5.13;;
19587;SDS011;9940;47.252;8.696;2023-04-05T08:42:03;11.02;;;5.13;;
19587;SDS011;9940;47.252;8.696;2023-04-05T08:44:30;7.53;;;4.65;;
19587;SDS011;9940;47.252;8.696;2023-04-05T08:46:57;9.02;;;5.20;;
19587;SDS011;9940;47.252;8.696;2023-04-05T08:49:24;9.13;;;5.10;;
19587;SDS011;9940;47.252;8.696;2023-04-05T08:51:52;9.70;;;5.30;;
19587;SDS011;9940;47.252;8.696;2023-04-05T08:54:23;8.93;;;4.80;;
19587;SDS011;9940;47.252;8.696;2023-04-05T08:56:52;9.07;;;5.57;;
19587;SDS011;9940;47.252;8.696;2023-04-05T08:59:18;10.18;;;4.97;;
19587;SDS011;9940;47.252;8.696;2023-04-05T09:01:45;7.53;;;5.03;;
19587;SDS011;9940;47.252;8.696;2023-04-05T09:04:20;14.77;;;6.18;;
19587;SDS011;9940;47.252;8.696;2023-04-05T09:06:54;10.05;;;5.45;;
19587;SDS011;9940;47.252;8.696;2023-04-05T09:09:23;10.90;;;5.38;;
19587;SDS011;9940;47.252;8.696;2023-04-05T09:11:52;10.25;;;5.05;;
19587;SDS011;9940;47.252;8.696;2023-04-05T09:14:21;10.40;;;5.53;;
19587;SDS011;9940;47.252;8.696;2023-04-05T09:16:49;7.28;;;5.05;;
19587;SDS011;9940;47.252;8.696;2023-04-05T09:19:15;11.00;;;5.18;;
19587;SDS011;9940;47.252;8.696;2023-04-05T09:21:56;10.40;;;5.35;;
19587;SDS011;9940;47.252;8.696;2023-04-05T09:24:33;10.05;;;5.00;;
19587;SDS011;9940;47.252;8.696;2023-04-05T09:29:34;13.20;;;5.25;;
19587;SDS011;9940;47.252;8.696;2023-04-05T09:32:03;10.05;;;5.68;;
19587;SDS011;9940;47.252;8.696;2023-04-05T09:34:33;9.50;;;5.00;;
19587;SDS011;9940;47.252;8.696;2023-04-05T09:39:43;8.25;;;5.30;;
19587;SDS011;9940;47.252;8.696;2023-04-05T09:42:17;7.63;;;4.93;;
19587;SDS011;9940;47.252;8.696;2023-04-05T09:44:56;8.15;;;5.13;;
19587;SDS011;9940;47.252;8.696;2023-04-05T09:47:23;9.32;;;4.95;;
19587;SDS011;9940;47.252;8.696;2023-04-05T09:49:51;8.82;;;5.20;;
19587;SDS011;9940;47.252;8.696;2023-04-05T09:52:23;9.30;;;5.10;;
19587;SDS011;9940;47.252;8.696;2023-04-05T09:54:53;9.98;;;5.10;;
19587;SDS011;9940;47.252;8.696;2023-04-05T09:57:24;8.65;;;5.68;;
19587;SDS011;9940;47.252;8.696;2023-04-05T09:59:53;8.60;;;5.18;;
19587;SDS011;9940;47.252;8.696;2023-04-05T10:02:22;7.72;;;5.20;;
19587;SDS011;9940;47.252;8.696;2023-04-05T10:04:48;9.65;;;5.45;;
19587;SDS011;9940;47.252;8.696;2023-04-05T10:07:17;10.60;;;5.18;;
19587;SDS011;9940;47.252;8.696;2023-04-05T10:09:46;8.13;;;5.03;;
19587;SDS011;9940;47.252;8.696;2023-04-05T10:12:23;7.60;;;5.45;;
19587;SDS011;9940;47.252;8.696;2023-04-05T10:14:56;6.32;;;4.80;;
19587;SDS011;9940;47.252;8.696;2023-04-05T10:20:18;9.30;;;5.28;;
19587;SDS011;9940;47.252;8.696;2023-04-05T10:28:03;10.13;;;5.63;;
19587;SDS011;9940;47.252;8.696;2023-04-05T10:30:40;9.63;;;4.93;;
19587;SDS011;9940;47.252;8.696;2023-04-05T10:37:00;7.10;;;5.30;;
19587;SDS011;9940;47.252;8.696;2023-04-05T10:39:16;9.07;;;5.80;;
19587;SDS011;9940;47.252;8.696;2023-04-05T10:41:47;11.52;;;5.53;;
19587;SDS011;9940;47.252;8.696;2023-04-05T10:44:14;8.63;;;5.40;;
19587;SDS011;9940;47.252;8.696;2023-04-05T10:46:40;9.57;;;6.03;;
19587;SDS011;9940;47.252;8.696;2023-04-05T10:51:50;12.57;;;6.22;;
19587;SDS011;9940;47.252;8.696;2023-04-05T10:54:16;8.80;;;5.57;;
19587;SDS011;9940;47.252;8.696;2023-04-05T10:56:44;7.93;;;5.38;;
19587;SDS011;9940;47.252;8.696;2023-04-05T10:59:12;9.00;;;5.93;;
19587;SDS011;9940;47.252;8.696;2023-04-05T11:01:39;8.00;;;5.78;;
19587;SDS011;9940;47.252;8.696;2023-04-05T11:04:15;9.48;;;6.18;;
19587;SDS011;9940;47.252;8.696;2023-04-05T11:06:42;7.38;;;5.72;;
19587;SDS011;9940;47.252;8.696;2023-04-05T11:11:47;8.05;;;5.85;;
19587;SDS011;9940;47.252;8.696;2023-04-05T11:16:46;7.30;;;5.80;;
19587;SDS011;9940;47.252;8.696;2023-04-05T11:19:16;8.13;;;6.10;;
19587;SDS011;9940;47.252;8.696;2023-04-05T11:21:47;8.27;;;6.05;;
19587;SDS011;9940;47.252;8.696;2023-04-05T11:24:25;8.55;;;5.50;;
19587;SDS011;9940;47.252;8.696;2023-04-05T11:27:15;8.68;;;6.03;;
19587;SDS011;9940;47.252;8.696;2023-04-05T11:29:49;7.68;;;5.88;;
19587;SDS011;9940;47.252;8.696;2023-04-05T11:32:15;9.02;;;5.80;;
19587;SDS011;9940;47.252;8.696;2023-04-05T11:34:43;9.00;;;5.95;;
19587;SDS011;9940;47.252;8.696;2023-04-05T11:37:51;8.95;;;6.35;;
19587;SDS011;9940;47.252;8.696;2023-04-05T11:40:30;8.27;;;5.75;;
19587;SDS011;9940;47.252;8.696;2023-04-05T11:43:06;8.88;;;6.13;;
19587;SDS011;9940;47.252;8.696;2023-04-05T11:45:34;7.72;;;6.10;;
19587;SDS011;9940;47.252;8.696;2023-04-05T11:48:06;7.32;;;6.15;;
19587;SDS011;9940;47.252;8.696;2023-04-05T11:50:34;6.35;;;5.75;;
19587;SDS011;9940;47.252;8.696;2023-04-05T11:53:07;9.25;;;6.45;;
19587;SDS011;9940;47.252;8.696;2023-04-05T11:55:36;10.43;;;7.15;;
19587;SDS011;9940;47.252;8.696;2023-04-05T11:58:11;9.35;;;6.70;;
19587;SDS011;9940;47.252;8.696;2023-04-05T12:00:56;8.93;;;7.57;;
19587;SDS011;9940;47.252;8.696;2023-04-05T12:03:31;8.57;;;7.75;;
19587;SDS011;9940;47.252;8.696;2023-04-05T12:05:57;9.15;;;8.27;;
19587;SDS011;9940;47.252;8.696;2023-04-05T12:08:37;10.07;;;9.10;;
19587;SDS011;9940;47.252;8.696;2023-04-05T12:11:05;9.48;;;8.65;;
19587;SDS011;9940;47.252;8.696;2023-04-05T12:13:32;9.25;;;8.27;;
19587;SDS011;9940;47.252;8.696;2023-04-05T12:15:59;9.45;;;8.55;;
19587;SDS011;9940;47.252;8.696;2023-04-05T12:18:32;9.40;;;8.60;;
19587;SDS011;9940;47.252;8.696;2023-04-05T12:21:04;10.18;;;9.38;;
19587;SDS011;9940;47.252;8.696;2023-04-05T12:23:38;13.05;;;12.05;;
19587;SDS011;9940;47.252;8.696;2023-04-05T12:26:09;14.00;;;12.70;;
19587;SDS011;9940;47.252;8.696;2023-04-05T12:28:54;17.38;;;16.17;;
19587;SDS011;9940;47.252;8.696;2023-04-05T12:31:38;17.60;;;16.40;;
19587;SDS011;9940;47.252;8.696;2023-04-05T12:34:08;14.23;;;13.13;;
19587;SDS011;9940;47.252;8.696;2023-04-05T12:36:35;19.98;;;18.50;;
19587;SDS011;9940;47.252;8.696;2023-04-05T12:39:05;23.75;;;22.15;;
19587;SDS011;9940;47.252;8.696;2023-04-05T12:41:32;14.80;;;13.70;;
19587;SDS011;9940;47.252;8.696;2023-04-05T12:43:58;17.60;;;16.23;;
19587;SDS011;9940;47.252;8.696;2023-04-05T12:46:41;22.15;;;20.70;;
19587;SDS011;9940;47.252;8.696;2023-04-05T12:49:16;23.15;;;21.73;;
19587;SDS011;9940;47.252;8.696;2023-04-05T12:54:11;18.80;;;17.60;;
19587;SDS011;9940;47.252;8.696;2023-04-05T12:56:52;20.42;;;19.15;;
19587;SDS011;9940;47.252;8.696;2023-04-05T12:59:20;22.92;;;21.38;;
19587;SDS011;9940;47.252;8.696;2023-04-05T13:01:51;25.48;;;23.90;;
19587;SDS011;9940;47.252;8.696;2023-04-05T13:04:19;25.55;;;23.95;;
19587;SDS011;9940;47.252;8.696;2023-04-05T13:06:46;22.52;;;21.23;;
19587;SDS011;9940;47.252;8.696;2023-04-05T13:09:17;38.38;;;36.17;;
19587;SDS011;9940;47.252;8.696;2023-04-05T13:11:47;34.58;;;32.67;;
19587;SDS011;9940;47.252;8.696;2023-04-05T13:14:16;41.67;;;39.08;;
19587;SDS011;9940;47.252;8.696;2023-04-05T13:16:42;45.60;;;43.20;;
19587;SDS011;9940;47.252;8.696;2023-04-05T13:19:08;44.80;;;42.33;;
19587;SDS011;9940;47.252;8.696;2023-04-05T13:21:38;75.68;;;72.07;;
19587;SDS011;9940;47.252;8.696;2023-04-05T13:24:04;64.60;;;61.40;;
19587;SDS011;9940;47.252;8.696;2023-04-05T13:26:34;62.73;;;59.60;;
19587;SDS011;9940;47.252;8.696;2023-04-05T13:29:00;67.00;;;63.55;;
19587;SDS011;9940;47.252;8.696;2023-04-05T13:31:27;70.28;;;66.88;;
19587;SDS011;9940;47.252;8.696;2023-04-05T13:33:53;87.13;;;83.03;;
19587;SDS011;9940;47.252;8.696;2023-04-05T13:36:23;105.88;;;101.20;;
19587;SDS011;9940;47.252;8.696;2023-04-05T13:38:50;102.90;;;98.07;;
19587;SDS011;9940;47.252;8.696;2023-04-05T13:41:20;110.75;;;105.63;;
19587;SDS011;9940;47.252;8.696;2023-04-05T13:43:45;93.43;;;89.05;;
19587;SDS011;9940;47.252;8.696;2023-04-05T13:46:11;129.13;;;123.40;;
19587;SDS011;9940;47.252;8.696;2023-04-05T13:48:37;142.95;;;136.82;;
19587;SDS011;9940;47.252;8.696;2023-04-05T13:51:02;140.20;;;134.10;;
19587;SDS011;9940;47.252;8.696;2023-04-05T13:53:28;182.77;;;175.25;;
19587;SDS011;9940;47.252;8.696;2023-04-05T13:55:56;117.32;;;112.20;;
19587;SDS011;9940;47.252;8.696;2023-04-05T13:58:22;131.85;;;125.93;;
19587;SDS011;9940;47.252;8.696;2023-04-05T14:00:48;100.72;;;96.22;;
19587;SDS011;9940;47.252;8.696;2023-04-05T14:03:13;108.65;;;103.70;;
19587;SDS011;9940;47.252;8.696;2023-04-05T14:05:41;98.30;;;93.60;;
19587;SDS011;9940;47.252;8.696;2023-04-05T14:08:07;103.72;;;99.03;;
19587;SDS011;9940;47.252;8.696;2023-04-05T14:10:32;103.18;;;98.57;;
19587;SDS011;9940;47.252;8.696;2023-04-05T14:12:58;113.82;;;108.72;;
19587;SDS011;9940;47.252;8.696;2023-04-05T14:15:23;113.15;;;108.07;;
19587;SDS011;9940;47.252;8.696;2023-04-05T14:17:49;94.07;;;89.60;;
19587;SDS011;9940;47.252;8.696;2023-04-05T14:20:15;60.17;;;57.13;;
19587;SDS011;9940;47.252;8.696;2023-04-05T14:22:43;61.65;;;58.63;;
19587;SDS011;9940;47.252;8.696;2023-04-05T14:25:09;33.60;;;31.63;;
19587;SDS011;9940;47.252;8.696;2023-04-05T14:27:34;42.05;;;39.80;;
19587;SDS011;9940;47.252;8.696;2023-04-05T14:30:05;37.78;;;35.80;;
19587;SDS011;9940;47.252;8.696;2023-04-05T14:32:31;34.20;;;32.40;;
19587;SDS011;9940;47.252;8.696;2023-04-05T14:34:57;32.78;;;30.88;;
19587;SDS011;9940;47.252;8.696;2023-04-05T14:37:23;18.10;;;16.90;;
19587;SDS011;9940;47.252;8.696;2023-04-05T14:39:48;17.52;;;16.30;;
19587;SDS011;9940;47.252;8.696;2023-04-05T14:42:14;16.63;;;15.52;;
19587;SDS011;9940;47.252;8.696;2023-04-05T14:44:42;11.25;;;10.13;;
19587;SDS011;9940;47.252;8.696;2023-04-05T14:47:08;9.68;;;8.93;;
19587;SDS011;9940;47.252;8.696;2023-04-05T14:49:38;9.10;;;8.20;;
19587;SDS011;9940;47.252;8.696;2023-04-05T14:52:04;8.27;;;7.15;;
19587;SDS011;9940;47.252;8.696;2023-04-05T14:54:32;7.40;;;6.80;;
19587;SDS011;9940;47.252;8.696;2023-04-05T14:56:58;7.65;;;7.05;;
19587;SDS011;9940;47.252;8.696;2023-04-05T14:59:26;7.10;;;6.25;;
19587;SDS011;9940;47.252;8.696;2023-04-05T15:01:54;9.18;;;6.10;;
19587;SDS011;9940;47.252;8.696;2023-04-05T15:04:20;7.18;;;5.40;;
19587;SDS011;9940;47.252;8.696;2023-04-05T15:06:46;5.93;;;5.32;;
19587;SDS011;9940;47.252;8.696;2023-04-05T15:09:14;9.70;;;7.05;;
19587;SDS011;9940;47.252;8.696;2023-04-05T15:11:39;7.05;;;6.35;;
19587;SDS011;9940;47.252;8.696;2023-04-05T15:14:05;7.30;;;6.63;;
19587;SDS011;9940;47.252;8.696;2023-04-05T15:16:34;6.28;;;5.68;;
19587;SDS011;9940;47.252;8.696;2023-04-05T15:19:02;7.28;;;6.55;;
19587;SDS011;9940;47.252;8.696;2023-04-05T15:21:27;9.48;;;7.45;;
19587;SDS011;9940;47.252;8.696;2023-04-05T15:23:56;7.97;;;6.15;;
19587;SDS011;9940;47.252;8.696;2023-04-05T15:26:26;6.82;;;6.18;;
19587;SDS011;9940;47.252;8.696;2023-04-05T15:28:56;6.45;;;5.90;;
19587;SDS011;9940;47.252;8.696;2023-04-05T15:31:22;5.97;;;5.38;;
19587;SDS011;9940;47.252;8.696;2023-04-05T15:33:48;5.95;;;5.35;;
19587;SDS011;9940;47.252;8.696;2023-04-05T15:36:14;9.40;;;6.15;;
19587;SDS011;9940;47.252;8.696;2023-04-05T15:38:40;7.43;;;6.28;;
19587;SDS011;9940;47.252;8.696;2023-04-05T15:41:06;7.05;;;6.18;;
19587;SDS011;9940;47.252;8.696;2023-04-05T15:43:32;6.70;;;6.00;;
19587;SDS011;9940;47.252;8.696;2023-04-05T15:45:58;6.63;;;5.68;;